sensor_id;sensor_type;location;lat;lon;timestamp;pressure;altitude;pressure_sealevel;temperature;humidity
58662;BME280;44432;49.786;22.760;2023-12-07T00:01:29;99311.37;;;0.03;90.42
58662;BME280;44432;49.786;22.760;2023-12-07T00:04:00;99310.39;;;0.05;90.33
58662;BME280;44432;49.786;22.760;2023-12-07T00:06:31;99310.38;;;0.05;90.24
58662;BME280;44432;49.786;22.760;2023-12-07T00:09:02;99312.54;;;0.06;90.36
58662;BME280;44432;49.786;22.760;2023-12-07T00:11:33;99307.47;;;0.04;90.26
58662;BME280;44432;49.786;22.760;2023-12-07T00:14:05;99307.95;;;0.06;90.35
58662;BME280;44432;49.786;22.760;2023-12-07T00:16:35;99301.30;;;0.07;90.50
58662;BME280;44432;49.786;22.760;2023-12-07T00:19:07;99300.70;;;0.06;90.50
58662;BME280;44432;49.786;22.760;2023-12-07T00:21:38;99303.45;;;0.08;90.34
58662;BME280;44432;49.786;22.760;2023-12-07T00:24:09;99307.38;;;0.09;90.39
58662;BME280;44432;49.786;22.760;2023-12-07T00:26:40;99308.23;;;0.09;90.49
58662;BME280;44432;49.786;22.760;2023-12-07T00:29:11;99306.84;;;0.09;90.36
58662;BME280;44432;49.786;22.760;2023-12-07T00:31:42;99313.17;;;0.10;90.39
58662;BME280;44432;49.786;22.760;2023-12-07T00:34:14;99311.42;;;0.10;90.40
58662;BME280;44432;49.786;22.760;2023-12-07T00:36:46;99311.55;;;0.10;90.45
58662;BME280;44432;49.786;22.760;2023-12-07T00:39:17;99314.39;;;0.11;90.35
58662;BME280;44432;49.786;22.760;2023-12-07T00:41:48;99316.58;;;0.12;90.42
58662;BME280;44432;49.786;22.760;2023-12-07T00:44:19;99311.52;;;0.13;90.30
58662;BME280;44432;49.786;22.760;2023-12-07T00:46:50;99318.95;;;0.13;90.48
58662;BME280;44432;49.786;22.760;2023-12-07T00:49:21;99320.29;;;0.13;90.47
58662;BME280;44432;49.786;22.760;2023-12-07T00:51:52;99312.34;;;0.13;90.44
58662;BME280;44432;49.786;22.760;2023-12-07T00:54:23;99311.59;;;0.14;90.45
58662;BME280;44432;49.786;22.760;2023-12-07T00:56:54;99311.02;;;0.14;90.43
58662;BME280;44432;49.786;22.760;2023-12-07T00:59:25;99312.45;;;0.16;90.52
58662;BME280;44432;49.786;22.760;2023-12-07T01:01:57;99308.01;;;0.15;90.55
58662;BME280;44432;49.786;22.760;2023-12-07T01:04:28;99317.77;;;0.16;90.53
58662;BME280;44432;49.786;22.760;2023-12-07T01:06:59;99317.73;;;0.16;90.66
58662;BME280;44432;49.786;22.760;2023-12-07T01:09:30;99318.21;;;0.17;90.48
58662;BME280;44432;49.786;22.760;2023-12-07T01:12:01;99318.35;;;0.17;90.50
58662;BME280;44432;49.786;22.760;2023-12-07T01:14:33;99317.77;;;0.18;90.43
58662;BME280;44432;49.786;22.760;2023-12-07T01:17:04;99315.56;;;0.17;90.50
58662;BME280;44432;49.786;22.760;2023-12-07T01:19:35;99313.66;;;0.17;90.60
58662;BME280;44432;49.786;22.760;2023-12-07T01:22:06;99308.98;;;0.17;90.60
58662;BME280;44432;49.786;22.760;2023-12-07T01:24:37;99303.55;;;0.16;90.58
58662;BME280;44432;49.786;22.760;2023-12-07T01:27:08;99305.91;;;0.19;90.71
58662;BME280;44432;49.786;22.760;2023-12-07T01:29:39;99304.98;;;0.19;90.63
58662;BME280;44432;49.786;22.760;2023-12-07T01:32:10;99303.36;;;0.20;90.83
58662;BME280;44432;49.786;22.760;2023-12-07T01:34:41;99306.96;;;0.20;90.86
58662;BME280;44432;49.786;22.760;2023-12-07T01:37:12;99306.63;;;0.20;90.73
58662;BME280;44432;49.786;22.760;2023-12-07T01:39:44;99305.24;;;0.20;90.76
58662;BME280;44432;49.786;22.760;2023-12-07T01:42:15;99305.34;;;0.19;90.77
58662;BME280;44432;49.786;22.760;2023-12-07T01:44:46;99309.48;;;0.21;90.91
58662;BME280;44432;49.786;22.760;2023-12-07T01:47:17;99312.17;;;0.22;90.72
58662;BME280;44432;49.786;22.760;2023-12-07T01:49:48;99308.03;;;0.22;90.86
58662;BME280;44432;49.786;22.760;2023-12-07T01:52:21;99307.34;;;0.22;90.72
58662;BME280;44432;49.786;22.760;2023-12-07T01:54:54;99307.42;;;0.23;90.69
58662;BME280;44432;49.786;22.760;2023-12-07T01:57:25;99300.88;;;0.22;90.80
58662;BME280;44432;49.786;22.760;2023-12-07T01:59:57;99298.75;;;0.21;90.93
58662;BME280;44432;49.786;22.760;2023-12-07T02:02:28;99299.69;;;0.22;90.85
58662;BME280;44432;49.786;22.760;2023-12-07T02:04:59;99299.02;;;0.24;91.04
58662;BME280;44432;49.786;22.760;2023-12-07T02:07:32;99294.18;;;0.24;90.86
58662;BME280;44432;49.786;22.760;2023-12-07T02:10:06;99296.23;;;0.24;91.00
58662;BME280;44432;49.786;22.760;2023-12-07T02:12:37;99296.05;;;0.24;91.01
58662;BME280;44432;49.786;22.760;2023-12-07T02:15:09;99297.24;;;0.24;90.99
58662;BME280;44432;49.786;22.760;2023-12-07T02:17:46;99295.46;;;0.25;90.82
58662;BME280;44432;49.786;22.760;2023-12-07T02:20:23;99299.45;;;0.25;90.88
58662;BME280;44432;49.786;22.760;2023-12-07T02:23:00;99297.84;;;0.23;90.97
58662;BME280;44432;49.786;22.760;2023-12-07T02:25:35;99301.27;;;0.25;91.00
58662;BME280;44432;49.786;22.760;2023-12-07T02:28:07;99300.30;;;0.25;90.98
58662;BME280;44432;49.786;22.760;2023-12-07T02:30:38;99304.34;;;0.24;91.09
58662;BME280;44432;49.786;22.760;2023-12-07T02:33:09;99305.65;;;0.25;91.09
58662;BME280;44432;49.786;22.760;2023-12-07T02:35:40;99306.66;;;0.25;91.05
58662;BME280;44432;49.786;22.760;2023-12-07T02:38:12;99307.42;;;0.26;91.22
58662;BME280;44432;49.786;22.760;2023-12-07T02:40:44;99308.30;;;0.26;91.23
58662;BME280;44432;49.786;22.760;2023-12-07T02:43:16;99311.03;;;0.27;91.33
58662;BME280;44432;49.786;22.760;2023-12-07T02:45:49;99311.94;;;0.26;91.16
58662;BME280;44432;49.786;22.760;2023-12-07T02:48:21;99309.88;;;0.26;91.28
58662;BME280;44432;49.786;22.760;2023-12-07T02:50:51;99315.64;;;0.27;91.25
58662;BME280;44432;49.786;22.760;2023-12-07T02:53:22;99315.73;;;0.26;91.38
58662;BME280;44432;49.786;22.760;2023-12-07T02:55:53;99317.84;;;0.26;91.26
58662;BME280;44432;49.786;22.760;2023-12-07T02:58:25;99314.67;;;0.25;91.28
58662;BME280;44432;49.786;22.760;2023-12-07T03:00:57;99317.26;;;0.27;91.44
58662;BME280;44432;49.786;22.760;2023-12-07T03:03:28;99318.85;;;0.27;91.42
58662;BME280;44432;49.786;22.760;2023-12-07T03:05:59;99321.58;;;0.27;91.44
58662;BME280;44432;49.786;22.760;2023-12-07T03:08:30;99322.15;;;0.26;91.27
58662;BME280;44432;49.786;22.760;2023-12-07T03:11:02;99322.98;;;0.26;91.44
58662;BME280;44432;49.786;22.760;2023-12-07T03:13:33;99322.51;;;0.26;91.51
58662;BME280;44432;49.786;22.760;2023-12-07T03:16:08;99320.20;;;0.27;91.48
58662;BME280;44432;49.786;22.760;2023-12-07T03:18:40;99325.24;;;0.26;91.52
58662;BME280;44432;49.786;22.760;2023-12-07T03:21:11;99322.51;;;0.26;91.47
58662;BME280;44432;49.786;22.760;2023-12-07T03:23:42;99322.80;;;0.27;91.62
58662;BME280;44432;49.786;22.760;2023-12-07T03:26:13;99327.71;;;0.28;91.67
58662;BME280;44432;49.786;22.760;2023-12-07T03:28:44;99328.56;;;0.28;91.52
58662;BME280;44432;49.786;22.760;2023-12-07T03:31:15;99331.77;;;0.27;91.48
58662;BME280;44432;49.786;22.760;2023-12-07T03:33:46;99329.48;;;0.27;91.58
58662;BME280;44432;49.786;22.760;2023-12-07T03:36:17;99332.81;;;0.27;91.72
58662;BME280;44432;49.786;22.760;2023-12-07T03:38:48;99331.34;;;0.26;91.45
58662;BME280;44432;49.786;22.760;2023-12-07T03:41:19;99330.60;;;0.27;91.67
58662;BME280;44432;49.786;22.760;2023-12-07T03:43:50;99334.91;;;0.27;91.66
58662;BME280;44432;49.786;22.760;2023-12-07T03:46:21;99338.96;;;0.26;91.67
58662;BME280;44432;49.786;22.760;2023-12-07T03:48:52;99341.56;;;0.26;91.73
58662;BME280;44432;49.786;22.760;2023-12-07T03:51:23;99342.80;;;0.26;91.98
58662;BME280;44432;49.786;22.760;2023-12-07T03:53:54;99343.14;;;0.26;91.85
58662;BME280;44432;49.786;22.760;2023-12-07T03:56:26;99345.71;;;0.26;91.97
58662;BME280;44432;49.786;22.760;2023-12-07T03:58:58;99347.88;;;0.25;92.08
58662;BME280;44432;49.786;22.760;2023-12-07T04:01:29;99347.80;;;0.24;91.94
58662;BME280;44432;49.786;22.760;2023-12-07T04:04:00;99345.98;;;0.23;92.06
58662;BME280;44432;49.786;22.760;2023-12-07T04:06:31;99348.04;;;0.22;92.07
58662;BME280;44432;49.786;22.760;2023-12-07T04:09:02;99343.10;;;0.19;92.16
58662;BME280;44432;49.786;22.760;2023-12-07T04:11:33;99345.81;;;0.18;92.21
58662;BME280;44432;49.786;22.760;2023-12-07T04:14:04;99348.83;;;0.17;92.33
58662;BME280;44432;49.786;22.760;2023-12-07T04:16:36;99351.44;;;0.17;92.35
58662;BME280;44432;49.786;22.760;2023-12-07T04:19:07;99350.66;;;0.16;92.52
58662;BME280;44432;49.786;22.760;2023-12-07T04:21:38;99350.36;;;0.15;92.43
58662;BME280;44432;49.786;22.760;2023-12-07T04:24:09;99354.38;;;0.15;92.55
58662;BME280;44432;49.786;22.760;2023-12-07T04:26:40;99355.12;;;0.14;92.44
58662;BME280;44432;49.786;22.760;2023-12-07T04:29:11;99355.80;;;0.15;92.64
58662;BME280;44432;49.786;22.760;2023-12-07T04:31:42;99358.59;;;0.14;92.68
58662;BME280;44432;49.786;22.760;2023-12-07T04:34:14;99356.77;;;0.12;92.70
58662;BME280;44432;49.786;22.760;2023-12-07T04:36:45;99360.13;;;0.13;92.67
58662;BME280;44432;49.786;22.760;2023-12-07T04:39:15;99361.42;;;0.12;92.71
58662;BME280;44432;49.786;22.760;2023-12-07T04:41:46;99362.84;;;0.12;92.80
58662;BME280;44432;49.786;22.760;2023-12-07T04:44:17;99370.04;;;0.11;92.77
58662;BME280;44432;49.786;22.760;2023-12-07T04:46:48;99367.93;;;0.09;92.86
58662;BME280;44432;49.786;22.760;2023-12-07T04:49:19;99371.65;;;0.08;92.98
58662;BME280;44432;49.786;22.760;2023-12-07T04:51:50;99371.65;;;0.08;92.89
58662;BME280;44432;49.786;22.760;2023-12-07T04:54:21;99373.63;;;0.08;93.02
58662;BME280;44432;49.786;22.760;2023-12-07T04:56:52;99377.80;;;0.07;92.92
58662;BME280;44432;49.786;22.760;2023-12-07T04:59:23;99377.45;;;0.07;93.09
58662;BME280;44432;49.786;22.760;2023-12-07T05:01:54;99377.45;;;0.07;93.05
58662;BME280;44432;49.786;22.760;2023-12-07T05:04:25;99377.29;;;0.07;93.12
58662;BME280;44432;49.786;22.760;2023-12-07T05:06:56;99380.15;;;0.08;93.30
58662;BME280;44432;49.786;22.760;2023-12-07T05:09:27;99381.21;;;0.08;93.20
58662;BME280;44432;49.786;22.760;2023-12-07T05:12:00;99383.17;;;0.09;93.15
58662;BME280;44432;49.786;22.760;2023-12-07T05:14:32;99384.44;;;0.08;93.10
58662;BME280;44432;49.786;22.760;2023-12-07T05:17:04;99385.55;;;0.09;93.14
58662;BME280;44432;49.786;22.760;2023-12-07T05:19:35;99388.94;;;0.10;93.09
58662;BME280;44432;49.786;22.760;2023-12-07T05:22:06;99389.70;;;0.11;93.01
58662;BME280;44432;49.786;22.760;2023-12-07T05:24:37;99388.85;;;0.11;93.10
58662;BME280;44432;49.786;22.760;2023-12-07T05:27:08;99391.85;;;0.12;93.05
58662;BME280;44432;49.786;22.760;2023-12-07T05:29:39;99389.98;;;0.12;93.22
58662;BME280;44432;49.786;22.760;2023-12-07T05:32:10;99389.31;;;0.12;93.22
58662;BME280;44432;49.786;22.760;2023-12-07T05:34:42;99391.04;;;0.12;93.11
58662;BME280;44432;49.786;22.760;2023-12-07T05:37:13;99392.21;;;0.12;93.23
58662;BME280;44432;49.786;22.760;2023-12-07T05:39:44;99395.27;;;0.13;93.28
58662;BME280;44432;49.786;22.760;2023-12-07T05:42:15;99398.02;;;0.13;93.14
58662;BME280;44432;49.786;22.760;2023-12-07T05:44:46;99403.22;;;0.13;93.08
58662;BME280;44432;49.786;22.760;2023-12-07T05:47:17;99399.98;;;0.11;93.13
58662;BME280;44432;49.786;22.760;2023-12-07T05:49:48;99408.36;;;0.12;93.16
58662;BME280;44432;49.786;22.760;2023-12-07T05:52:19;99407.70;;;0.11;93.07
58662;BME280;44432;49.786;22.760;2023-12-07T05:54:50;99415.52;;;0.11;92.96
58662;BME280;44432;49.786;22.760;2023-12-07T05:57:21;99413.69;;;0.10;93.10
58662;BME280;44432;49.786;22.760;2023-12-07T05:59:52;99418.08;;;0.09;93.12
58662;BME280;44432;49.786;22.760;2023-12-07T06:02:24;99420.36;;;0.09;93.01
58662;BME280;44432;49.786;22.760;2023-12-07T06:04:56;99421.03;;;0.08;93.05
58662;BME280;44432;49.786;22.760;2023-12-07T06:07:27;99415.89;;;0.07;93.02
58662;BME280;44432;49.786;22.760;2023-12-07T06:09:58;99412.95;;;0.05;93.02
58662;BME280;44432;49.786;22.760;2023-12-07T06:12:29;99417.70;;;0.06;93.04
58662;BME280;44432;49.786;22.760;2023-12-07T06:15:00;99418.93;;;0.06;93.01
58662;BME280;44432;49.786;22.760;2023-12-07T06:17:31;99421.69;;;0.06;93.06
58662;BME280;44432;49.786;22.760;2023-12-07T06:20:04;99425.35;;;0.06;92.94
58662;BME280;44432;49.786;22.760;2023-12-07T06:22:35;99424.69;;;0.05;92.89
58662;BME280;44432;49.786;22.760;2023-12-07T06:25:07;99428.39;;;0.05;93.10
58662;BME280;44432;49.786;22.760;2023-12-07T06:27:39;99430.73;;;0.06;92.91
58662;BME280;44432;49.786;22.760;2023-12-07T06:30:11;99435.65;;;0.07;93.05
58662;BME280;44432;49.786;22.760;2023-12-07T06:32:42;99440.37;;;0.08;93.04
58662;BME280;44432;49.786;22.760;2023-12-07T06:35:14;99445.84;;;0.09;92.98
58662;BME280;44432;49.786;22.760;2023-12-07T06:37:45;99443.64;;;0.10;92.93
58662;BME280;44432;49.786;22.760;2023-12-07T06:40:16;99451.15;;;0.11;92.94
58662;BME280;44432;49.786;22.760;2023-12-07T06:42:48;99445.25;;;0.11;92.83
58662;BME280;44432;49.786;22.760;2023-12-07T06:45:19;99450.99;;;0.11;92.74
58662;BME280;44432;49.786;22.760;2023-12-07T06:47:50;99450.06;;;0.12;92.76
58662;BME280;44432;49.786;22.760;2023-12-07T06:50:21;99452.16;;;0.11;92.75
58662;BME280;44432;49.786;22.760;2023-12-07T06:52:52;99449.78;;;0.11;92.67
58662;BME280;44432;49.786;22.760;2023-12-07T06:55:23;99454.90;;;0.10;92.77
58662;BME280;44432;49.786;22.760;2023-12-07T06:57:54;99455.54;;;0.09;92.58
58662;BME280;44432;49.786;22.760;2023-12-07T07:00:25;99452.80;;;0.08;92.70
58662;BME280;44432;49.786;22.760;2023-12-07T07:02:56;99456.36;;;0.07;92.61
58662;BME280;44432;49.786;22.760;2023-12-07T07:05:27;99456.74;;;0.07;92.62
58662;BME280;44432;49.786;22.760;2023-12-07T07:07:58;99459.74;;;0.06;92.68
58662;BME280;44432;49.786;22.760;2023-12-07T07:10:30;99457.89;;;0.06;92.61
58662;BME280;44432;49.786;22.760;2023-12-07T07:13:02;99453.85;;;0.07;92.52
58662;BME280;44432;49.786;22.760;2023-12-07T07:15:34;99456.08;;;0.08;92.85
58662;BME280;44432;49.786;22.760;2023-12-07T07:18:06;99454.30;;;0.09;92.83
58662;BME280;44432;49.786;22.760;2023-12-07T07:20:38;99456.59;;;0.10;92.66
58662;BME280;44432;49.786;22.760;2023-12-07T07:23:09;99455.75;;;0.10;92.67
58662;BME280;44432;49.786;22.760;2023-12-07T07:25:41;99455.40;;;0.10;92.58
58662;BME280;44432;49.786;22.760;2023-12-07T07:28:12;99459.02;;;0.10;92.64
58662;BME280;44432;49.786;22.760;2023-12-07T07:30:44;99460.45;;;0.12;92.69
58662;BME280;44432;49.786;22.760;2023-12-07T07:33:15;99461.35;;;0.11;92.74
58662;BME280;44432;49.786;22.760;2023-12-07T07:35:46;99466.29;;;0.10;92.68
58662;BME280;44432;49.786;22.760;2023-12-07T07:38:17;99468.78;;;0.09;92.63
58662;BME280;44432;49.786;22.760;2023-12-07T07:40:48;99468.08;;;0.08;92.56
58662;BME280;44432;49.786;22.760;2023-12-07T07:43:20;99465.70;;;0.07;92.62
58662;BME280;44432;49.786;22.760;2023-12-07T07:45:51;99472.34;;;0.07;92.76
58662;BME280;44432;49.786;22.760;2023-12-07T07:48:22;99474.66;;;0.08;92.68
58662;BME280;44432;49.786;22.760;2023-12-07T07:50:55;99475.61;;;0.09;92.71
58662;BME280;44432;49.786;22.760;2023-12-07T07:53:26;99474.45;;;0.08;92.67
58662;BME280;44432;49.786;22.760;2023-12-07T07:55:58;99476.46;;;0.09;92.59
58662;BME280;44432;49.786;22.760;2023-12-07T07:58:29;99478.56;;;0.11;92.71
58662;BME280;44432;49.786;22.760;2023-12-07T08:01:00;99483.31;;;0.13;92.78
58662;BME280;44432;49.786;22.760;2023-12-07T08:03:31;99481.99;;;0.14;92.70
58662;BME280;44432;49.786;22.760;2023-12-07T08:06:02;99480.08;;;0.14;92.46
58662;BME280;44432;49.786;22.760;2023-12-07T08:08:34;99478.86;;;0.13;92.30
58662;BME280;44432;49.786;22.760;2023-12-07T08:11:05;99487.52;;;0.13;92.44
58662;BME280;44432;49.786;22.760;2023-12-07T08:13:36;99489.38;;;0.13;92.39
58662;BME280;44432;49.786;22.760;2023-12-07T08:16:10;99492.39;;;0.12;92.46
58662;BME280;44432;49.786;22.760;2023-12-07T08:18:41;99491.23;;;0.12;92.46
58662;BME280;44432;49.786;22.760;2023-12-07T08:21:22;99498.94;;;0.13;92.43
58662;BME280;44432;49.786;22.760;2023-12-07T08:23:53;99497.17;;;0.13;92.30
58662;BME280;44432;49.786;22.760;2023-12-07T08:26:25;99498.12;;;0.14;92.38
58662;BME280;44432;49.786;22.760;2023-12-07T08:28:57;99501.31;;;0.15;92.33
58662;BME280;44432;49.786;22.760;2023-12-07T08:31:28;99505.00;;;0.17;92.42
58662;BME280;44432;49.786;22.760;2023-12-07T08:33:59;99508.90;;;0.19;92.30
58662;BME280;44432;49.786;22.760;2023-12-07T08:36:31;99502.91;;;0.22;92.32
58662;BME280;44432;49.786;22.760;2023-12-07T08:39:03;99506.23;;;0.25;92.25
58662;BME280;44432;49.786;22.760;2023-12-07T08:41:35;99504.64;;;0.28;92.23
58662;BME280;44432;49.786;22.760;2023-12-07T08:44:06;99510.05;;;0.31;92.01
58662;BME280;44432;49.786;22.760;2023-12-07T08:46:37;99514.72;;;0.31;91.75
58662;BME280;44432;49.786;22.760;2023-12-07T08:49:09;99517.34;;;0.30;91.66
58662;BME280;44432;49.786;22.760;2023-12-07T08:51:40;99522.11;;;0.32;91.66
58662;BME280;44432;49.786;22.760;2023-12-07T08:54:11;99522.34;;;0.31;91.55
58662;BME280;44432;49.786;22.760;2023-12-07T08:56:45;99525.10;;;0.31;91.55
58662;BME280;44432;49.786;22.760;2023-12-07T08:59:16;99522.10;;;0.31;91.59
58662;BME280;44432;49.786;22.760;2023-12-07T09:01:47;99523.16;;;0.31;91.52
58662;BME280;44432;49.786;22.760;2023-12-07T09:04:18;99520.38;;;0.30;91.46
58662;BME280;44432;49.786;22.760;2023-12-07T09:06:49;99524.02;;;0.29;91.49
58662;BME280;44432;49.786;22.760;2023-12-07T09:09:20;99517.86;;;0.31;91.26
58662;BME280;44432;49.786;22.760;2023-12-07T09:11:53;99517.48;;;0.33;91.58
58662;BME280;44432;49.786;22.760;2023-12-07T09:14:24;99519.54;;;0.37;91.64
58662;BME280;44432;49.786;22.760;2023-12-07T09:16:56;99522.45;;;0.41;91.50
58662;BME280;44432;49.786;22.760;2023-12-07T09:19:27;99515.96;;;0.44;91.33
58662;BME280;44432;49.786;22.760;2023-12-07T09:21:58;99516.31;;;0.46;91.12
58662;BME280;44432;49.786;22.760;2023-12-07T09:24:30;99519.61;;;0.47;91.09
58662;BME280;44432;49.786;22.760;2023-12-07T09:27:01;99517.98;;;0.48;91.04
58662;BME280;44432;49.786;22.760;2023-12-07T09:29:33;99515.75;;;0.50;91.13
58662;BME280;44432;49.786;22.760;2023-12-07T09:32:05;99516.44;;;0.50;91.06
58662;BME280;44432;49.786;22.760;2023-12-07T09:34:39;99514.71;;;0.50;90.96
58662;BME280;44432;49.786;22.760;2023-12-07T09:37:10;99514.11;;;0.51;91.04
58662;BME280;44432;49.786;22.760;2023-12-07T09:39:42;99515.95;;;0.52;90.84
58662;BME280;44432;49.786;22.760;2023-12-07T09:42:13;99514.02;;;0.50;90.90
58662;BME280;44432;49.786;22.760;2023-12-07T09:44:44;99513.69;;;0.51;90.85
58662;BME280;44432;49.786;22.760;2023-12-07T09:47:16;99515.05;;;0.53;90.98
58662;BME280;44432;49.786;22.760;2023-12-07T09:49:47;99513.48;;;0.57;90.77
58662;BME280;44432;49.786;22.760;2023-12-07T09:52:18;99511.96;;;0.62;90.70
58662;BME280;44432;49.786;22.760;2023-12-07T09:54:50;99512.62;;;0.69;90.66
58662;BME280;44432;49.786;22.760;2023-12-07T09:57:22;99507.38;;;0.73;90.55
58662;BME280;44432;49.786;22.760;2023-12-07T09:59:53;99507.79;;;0.78;90.34
58662;BME280;44432;49.786;22.760;2023-12-07T10:02:26;99507.13;;;0.79;90.43
58662;BME280;44432;49.786;22.760;2023-12-07T10:05:07;99509.06;;;0.80;90.26
58662;BME280;44432;49.786;22.760;2023-12-07T10:07:41;99507.66;;;0.81;90.23
58662;BME280;44432;49.786;22.760;2023-12-07T10:10:12;99506.58;;;0.79;90.24
58662;BME280;44432;49.786;22.760;2023-12-07T10:12:48;99507.89;;;0.78;89.98
58662;BME280;44432;49.786;22.760;2023-12-07T10:15:23;99509.95;;;0.77;90.04
58662;BME280;44432;49.786;22.760;2023-12-07T10:17:54;99507.87;;;0.79;90.07
58662;BME280;44432;49.786;22.760;2023-12-07T10:20:27;99508.73;;;0.80;90.21
58662;BME280;44432;49.786;22.760;2023-12-07T10:23:06;99505.60;;;0.82;90.05
58662;BME280;44432;49.786;22.760;2023-12-07T10:25:40;99505.33;;;0.83;90.04
58662;BME280;44432;49.786;22.760;2023-12-07T10:28:12;99505.08;;;0.82;89.93
58662;BME280;44432;49.786;22.760;2023-12-07T10:30:43;99508.13;;;0.78;89.64
58662;BME280;44432;49.786;22.760;2023-12-07T10:33:15;99509.79;;;0.71;89.52
58662;BME280;44432;49.786;22.760;2023-12-07T10:35:46;99511.48;;;0.66;89.42
58662;BME280;44432;49.786;22.760;2023-12-07T10:38:18;99511.70;;;0.60;89.46
58662;BME280;44432;49.786;22.760;2023-12-07T10:40:56;99510.37;;;0.55;89.53
58662;BME280;44432;49.786;22.760;2023-12-07T10:43:32;99509.38;;;0.53;89.55
58662;BME280;44432;49.786;22.760;2023-12-07T10:46:08;99508.06;;;0.52;89.71
58662;BME280;44432;49.786;22.760;2023-12-07T10:48:39;99508.91;;;0.51;89.72
58662;BME280;44432;49.786;22.760;2023-12-07T10:51:17;99509.88;;;0.48;89.70
58662;BME280;44432;49.786;22.760;2023-12-07T10:53:53;99510.24;;;0.46;89.48
58662;BME280;44432;49.786;22.760;2023-12-07T10:56:32;99512.74;;;0.43;89.47
58662;BME280;44432;49.786;22.760;2023-12-07T10:59:04;99513.46;;;0.41;89.49
58662;BME280;44432;49.786;22.760;2023-12-07T11:01:35;99509.44;;;0.40;89.49
58662;BME280;44432;49.786;22.760;2023-12-07T11:04:08;99506.88;;;0.39;89.63
58662;BME280;44432;49.786;22.760;2023-12-07T11:06:44;99513.23;;;0.40;89.61
58662;BME280;44432;49.786;22.760;2023-12-07T11:09:21;99508.89;;;0.40;89.73
58662;BME280;44432;49.786;22.760;2023-12-07T11:11:57;99506.29;;;0.44;89.77
58662;BME280;44432;49.786;22.760;2023-12-07T11:14:30;99511.66;;;0.45;89.61
58662;BME280;44432;49.786;22.760;2023-12-07T11:17:02;99512.65;;;0.46;89.45
58662;BME280;44432;49.786;22.760;2023-12-07T11:19:47;99510.45;;;0.45;89.72
58662;BME280;44432;49.786;22.760;2023-12-07T11:22:18;99510.73;;;0.46;89.53
58662;BME280;44432;49.786;22.760;2023-12-07T11:24:57;99513.60;;;0.47;89.51
58662;BME280;44432;49.786;22.760;2023-12-07T11:27:33;99516.92;;;0.45;89.48
58662;BME280;44432;49.786;22.760;2023-12-07T11:30:06;99515.55;;;0.45;89.46
58662;BME280;44432;49.786;22.760;2023-12-07T11:32:37;99516.95;;;0.45;89.56
58662;BME280;44432;49.786;22.760;2023-12-07T11:35:13;99520.04;;;0.45;89.45
58662;BME280;44432;49.786;22.760;2023-12-07T11:38:02;99514.95;;;0.44;89.55
58662;BME280;44432;49.786;22.760;2023-12-07T11:40:38;99516.94;;;0.46;89.54
58662;BME280;44432;49.786;22.760;2023-12-07T11:43:18;99518.48;;;0.47;89.47
58662;BME280;44432;49.786;22.760;2023-12-07T11:45:50;99520.14;;;0.47;89.49
58662;BME280;44432;49.786;22.760;2023-12-07T11:48:22;99518.80;;;0.49;89.30
58662;BME280;44432;49.786;22.760;2023-12-07T11:51:01;99521.27;;;0.52;89.47
58662;BME280;44432;49.786;22.760;2023-12-07T11:53:33;99517.59;;;0.56;89.42
58662;BME280;44432;49.786;22.760;2023-12-07T11:56:07;99520.25;;;0.61;89.67
58662;BME280;44432;49.786;22.760;2023-12-07T11:58:39;99513.66;;;0.64;89.69
58662;BME280;44432;49.786;22.760;2023-12-07T12:01:10;99511.58;;;0.69;89.58
58662;BME280;44432;49.786;22.760;2023-12-07T12:03:42;99510.08;;;0.68;89.36
58662;BME280;44432;49.786;22.760;2023-12-07T12:06:13;99508.75;;;0.71;89.46
58662;BME280;44432;49.786;22.760;2023-12-07T12:08:44;99510.61;;;0.71;89.25
58662;BME280;44432;49.786;22.760;2023-12-07T12:11:16;99514.36;;;0.70;89.16
58662;BME280;44432;49.786;22.760;2023-12-07T12:13:47;99517.73;;;0.69;88.96
58662;BME280;44432;49.786;22.760;2023-12-07T12:16:19;99519.34;;;0.65;89.06
58662;BME280;44432;49.786;22.760;2023-12-07T12:18:51;99520.85;;;0.62;88.93
58662;BME280;44432;49.786;22.760;2023-12-07T12:21:23;99518.88;;;0.57;88.91
58662;BME280;44432;49.786;22.760;2023-12-07T12:23:55;99520.86;;;0.53;88.88
58662;BME280;44432;49.786;22.760;2023-12-07T12:26:26;99520.96;;;0.48;89.03
58662;BME280;44432;49.786;22.760;2023-12-07T12:28:58;99522.52;;;0.44;89.05
58662;BME280;44432;49.786;22.760;2023-12-07T12:31:29;99524.39;;;0.41;89.09
58662;BME280;44432;49.786;22.760;2023-12-07T12:34:02;99527.19;;;0.39;89.08
58662;BME280;44432;49.786;22.760;2023-12-07T12:36:33;99527.88;;;0.37;89.51
58662;BME280;44432;49.786;22.760;2023-12-07T12:39:04;99528.92;;;0.35;89.51
58662;BME280;44432;49.786;22.760;2023-12-07T12:41:38;99528.92;;;0.33;89.55
58662;BME280;44432;49.786;22.760;2023-12-07T12:44:09;99531.12;;;0.29;89.57
58662;BME280;44432;49.786;22.760;2023-12-07T12:46:41;99530.24;;;0.28;89.54
58662;BME280;44432;49.786;22.760;2023-12-07T12:49:12;99530.64;;;0.27;89.68
58662;BME280;44432;49.786;22.760;2023-12-07T12:51:45;99532.80;;;0.26;89.63
58662;BME280;44432;49.786;22.760;2023-12-07T12:54:18;99534.69;;;0.25;89.50
58662;BME280;44432;49.786;22.760;2023-12-07T12:56:52;99533.60;;;0.23;89.52
58662;BME280;44432;49.786;22.760;2023-12-07T12:59:23;99537.48;;;0.23;89.60
58662;BME280;44432;49.786;22.760;2023-12-07T13:01:54;99538.00;;;0.21;89.46
58662;BME280;44432;49.786;22.760;2023-12-07T13:04:26;99543.10;;;0.18;89.47
58662;BME280;44432;49.786;22.760;2023-12-07T13:06:57;99544.16;;;0.16;89.34
58662;BME280;44432;49.786;22.760;2023-12-07T13:09:28;99549.77;;;0.13;89.41
58662;BME280;44432;49.786;22.760;2023-12-07T13:12:00;99549.74;;;0.12;89.59
58662;BME280;44432;49.786;22.760;2023-12-07T13:14:31;99552.15;;;0.10;89.54
58662;BME280;44432;49.786;22.760;2023-12-07T13:17:05;99552.64;;;0.08;89.45
58662;BME280;44432;49.786;22.760;2023-12-07T13:19:37;99552.54;;;0.06;89.49
58662;BME280;44432;49.786;22.760;2023-12-07T13:22:08;99553.80;;;0.03;89.61
58662;BME280;44432;49.786;22.760;2023-12-07T13:24:39;99554.19;;;-0.01;89.55